Time;durP1;ratioP1;P1;durP2;ratioP2;P2;SDS_P1;SDS_P2;PMS_P1;PMS_P2;Temp;Humidity;BMP_temperature;BMP_pressure;BME280_temperature;BME280_humidity;BME280_pressure;Samples;Min_cycle;Max_cycle;Signal;HPM_P1;HPM_P2
2021/09/25 00:01:04;;;;;;;14.17;7.70;;;10.20;99.90;;;;;;4999507;28;20326;-58
2021/09/25 00:03:30;;;;;;;9.53;6.80;;;10.10;99.90;;;;;;5005246;28;20293;-57
2021/09/25 00:05:56;;;;;;;9.50;6.50;;;10.10;99.90;;;;;;5013445;28;20173;-56
2021/09/25 00:08:21;;;;;;;11.47;7.20;;;10.10;99.90;;;;;;5005437;28;20188;-57
2021/09/25 00:10:47;;;;;;;12.70;7.50;;;10.00;99.90;;;;;;5002262;28;20207;-58
2021/09/25 00:13:13;;;;;;;11.40;6.70;;;10.00;99.90;;;;;;4992345;28;20180;-58
2021/09/25 00:15:39;;;;;;;8.70;6.53;;;10.00;99.90;;;;;;4987906;28;20215;-58
2021/09/25 00:18:05;;;;;;;10.90;6.90;;;10.00;99.90;;;;;;5008312;28;20467;-58
2021/09/25 00:20:37;;;;;;;10.20;6.93;;;9.90;99.90;;;;;;5008753;28;20196;-58
2021/09/25 00:23:04;;;;;;;11.60;7.40;;;9.90;99.90;;;;;;5006529;28;21009;-58
2021/09/25 00:25:30;;;;;;;9.70;6.70;;;9.90;99.90;;;;;;5004112;28;20467;-57
2021/09/25 00:27:55;;;;;;;11.43;7.17;;;9.90;99.90;;;;;;5008880;28;20980;-58
2021/09/25 00:30:21;;;;;;;11.33;7.80;;;9.90;99.90;;;;;;5011501;28;20459;-58
2021/09/25 00:32:47;;;;;;;10.03;7.10;;;9.90;99.90;;;;;;4988428;28;20271;-57
2021/09/25 00:35:13;;;;;;;14.50;7.40;;;9.90;99.90;;;;;;5005830;28;20176;-58
2021/09/25 00:37:40;;;;;;;14.83;7.03;;;9.90;99.90;;;;;;5006417;28;20443;-58
2021/09/25 00:40:07;;;;;;;9.53;6.90;;;9.90;99.90;;;;;;5006946;28;20943;-57
2021/09/25 00:42:33;;;;;;;36.13;9.33;;;9.90;99.90;;;;;;5006276;28;20463;-58
2021/09/25 00:44:59;;;;;;;13.37;7.70;;;9.90;99.90;;;;;;4989987;28;20420;-56
2021/09/25 00:47:25;;;;;;;11.00;7.17;;;9.90;99.90;;;;;;5008556;28;20442;-58
2021/09/25 00:49:51;;;;;;;14.70;8.60;;;9.90;99.90;;;;;;5008129;28;20318;-59
2021/09/25 00:52:16;;;;;;;11.20;7.97;;;9.90;99.90;;;;;;5008847;28;20959;-56
2021/09/25 00:54:43;;;;;;;21.60;8.50;;;9.80;99.90;;;;;;5005498;28;20442;-56
2021/09/25 00:57:08;;;;;;;13.77;8.10;;;9.80;99.90;;;;;;5005910;28;20807;-57
2021/09/25 00:59:34;;;;;;;12.13;7.60;;;9.80;99.90;;;;;;5016260;28;20514;-58
2021/09/25 01:02:00;;;;;;;23.77;7.40;;;9.80;99.90;;;;;;5002279;28;20185;-57
2021/09/25 01:04:26;;;;;;;14.73;8.20;;;9.80;99.90;;;;;;5009308;28;20795;-57
2021/09/25 01:06:52;;;;;;;32.33;8.70;;;9.80;99.90;;;;;;5006954;28;20175;-56
2021/09/25 01:09:17;;;;;;;9.23;6.40;;;9.80;99.90;;;;;;5010300;28;20171;-57
2021/09/25 01:11:43;;;;;;;38.00;7.73;;;9.80;99.90;;;;;;5028238;28;20738;-57
2021/09/25 01:14:12;;;;;;;47.00;8.83;;;9.70;99.90;;;;;;4988269;28;20238;-58
2021/09/25 01:16:38;;;;;;;37.57;7.57;;;9.60;99.90;;;;;;5010050;28;20188;-57
2021/09/25 01:19:03;;;;;;;31.13;6.90;;;9.50;99.90;;;;;;5008245;28;20434;-57
2021/09/25 01:21:29;;;;;;;43.03;9.67;;;9.50;99.90;;;;;;5008827;28;20212;-59
2021/09/25 01:23:55;;;;;;;25.77;9.37;;;9.40;99.90;;;;;;4991010;28;20691;-57
2021/09/25 01:26:20;;;;;;;29.43;8.40;;;9.40;99.90;;;;;;5025040;28;20788;-58
2021/09/25 01:28:47;;;;;;;37.90;9.70;;;9.40;99.90;;;;;;5016696;28;20178;-58
2021/09/25 01:31:14;;;;;;;36.17;8.40;;;9.30;99.90;;;;;;5008861;28;20201;-56
2021/09/25 01:33:45;;;;;;;18.83;7.47;;;9.30;99.90;;;;;;4988375;28;20439;-57
2021/09/25 01:36:13;;;;;;;11.90;7.30;;;9.30;99.90;;;;;;5010719;28;20773;-56
2021/09/25 01:38:40;;;;;;;41.23;8.13;;;9.30;99.90;;;;;;5008324;28;20416;-57
2021/09/25 01:41:06;;;;;;;13.30;7.20;;;9.20;99.90;;;;;;5020812;28;20525;-57
2021/09/25 01:43:33;;;;;;;34.53;7.53;;;9.30;99.90;;;;;;4990495;28;20513;-56
2021/09/25 01:46:00;;;;;;;35.57;7.67;;;9.20;99.90;;;;;;5002104;28;20528;-53
2021/09/25 01:48:26;;;;;;;18.07;7.47;;;9.20;99.90;;;;;;5005541;28;20518;-59
2021/09/25 01:50:52;;;;;;;52.93;7.37;;;9.20;99.90;;;;;;5010853;28;20473;-55
2021/09/25 01:53:19;;;;;;;25.73;8.40;;;9.20;99.90;;;;;;5008392;28;20482;-55
2021/09/25 01:55:45;;;;;;;11.07;7.33;;;9.10;99.90;;;;;;5008118;28;20443;-58
2021/09/25 01:58:11;;;;;;;17.60;6.80;;;9.10;99.90;;;;;;5015042;28;20951;-57
2021/09/25 02:00:37;;;;;;;26.87;7.43;;;9.10;99.90;;;;;;5010867;28;20252;-58
2021/09/25 02:03:06;;;;;;;39.00;6.83;;;9.10;99.90;;;;;;5010135;28;20201;-59
2021/09/25 02:05:32;;;;;;;17.80;5.67;;;9.10;99.90;;;;;;5009274;28;20447;-57
2021/09/25 02:07:58;;;;;;;9.40;5.10;;;9.00;99.90;;;;;;5011279;28;20474;-55
2021/09/25 02:10:24;;;;;;;8.43;5.43;;;9.00;99.90;;;;;;5015075;28;20656;-55
2021/09/25 02:12:49;;;;;;;6.80;4.53;;;9.00;99.90;;;;;;5023964;28;20546;-56
2021/09/25 02:15:17;;;;;;;41.83;6.93;;;9.00;99.90;;;;;;5010444;28;20222;-57
2021/09/25 02:17:43;;;;;;;20.23;4.90;;;9.10;99.90;;;;;;5010423;28;20260;-59
2021/09/25 02:20:10;;;;;;;8.73;5.43;;;9.10;99.90;;;;;;5010769;28;20558;-57
2021/09/25 02:22:36;;;;;;;29.33;6.00;;;9.10;99.90;;;;;;5010679;28;20188;-55
2021/09/25 02:25:07;;;;;;;43.13;5.30;;;9.10;99.90;;;;;;5014493;28;20925;-56
2021/09/25 02:27:39;;;;;;;36.87;6.20;;;9.10;99.90;;;;;;5016765;28;20530;-56
2021/09/25 02:30:14;;;;;;;12.40;4.80;;;9.00;99.90;;;;;;5002658;28;21095;-58
2021/09/25 02:32:40;;;;;;;6.23;4.53;;;9.00;99.90;;;;;;5011876;28;20421;-57
2021/09/25 02:35:09;;;;;;;21.73;4.97;;;8.90;99.90;;;;;;4991451;28;20527;-58
2021/09/25 02:37:35;;;;;;;6.40;4.53;;;8.90;99.90;;;;;;5013810;28;20955;-58
2021/09/25 02:40:01;;;;;;;9.37;5.70;;;8.90;99.90;;;;;;5018327;28;20516;-58
2021/09/25 02:42:26;;;;;;;10.80;4.77;;;8.90;99.90;;;;;;5018572;28;20191;-57
2021/09/25 02:44:52;;;;;;;8.40;5.20;;;9.00;99.90;;;;;;5012031;28;20191;-58
2021/09/25 02:47:18;;;;;;;6.33;4.60;;;9.00;99.90;;;;;;5011644;28;20720;-59
2021/09/25 02:49:43;;;;;;;7.07;4.97;;;9.00;99.90;;;;;;5008848;28;20260;-56
2021/09/25 02:52:09;;;;;;;18.07;5.67;;;9.00;99.90;;;;;;4996088;28;20585;-57
2021/09/25 02:54:35;;;;;;;6.87;5.37;;;9.00;99.90;;;;;;5002275;28;20180;-58
2021/09/25 02:57:00;;;;;;;17.20;4.83;;;8.90;99.90;;;;;;5010375;28;20629;-57
2021/09/25 02:59:26;;;;;;;12.20;5.47;;;8.90;99.90;;;;;;5011162;28;20173;-58
2021/09/25 03:01:52;;;;;;;12.93;6.23;;;8.90;99.90;;;;;;5010501;28;20204;-56
2021/09/25 03:04:17;;;;;;;14.90;6.37;;;8.90;99.90;;;;;;4998170;28;20229;-58
2021/09/25 03:06:43;;;;;;;13.23;5.27;;;8.90;99.90;;;;;;5007620;28;20172;-57
2021/09/25 03:09:09;;;;;;;13.53;6.90;;;8.90;99.90;;;;;;5008429;28;20168;-57
2021/09/25 03:11:34;;;;;;;35.27;8.47;;;8.90;99.90;;;;;;4991316;28;20238;-58
2021/09/25 03:14:00;;;;;;;28.20;7.93;;;8.80;99.90;;;;;;5006737;28;20176;-58
2021/09/25 03:16:25;;;;;;;13.50;7.10;;;8.80;99.90;;;;;;5005845;28;20675;-58
2021/09/25 03:18:51;;;;;;;15.23;7.60;;;8.80;99.90;;;;;;5009814;28;20263;-57
2021/09/25 03:21:17;;;;;;;16.00;6.10;;;8.70;99.90;;;;;;5009937;28;20196;-57
2021/09/25 03:23:42;;;;;;;7.57;5.37;;;8.70;99.90;;;;;;4992402;28;20326;-58
2021/09/25 03:26:08;;;;;;;6.30;5.00;;;8.70;99.90;;;;;;5009963;28;20561;-56
2021/09/25 03:28:34;;;;;;;7.07;4.27;;;8.70;99.90;;;;;;5013361;28;20184;-57
2021/09/25 03:31:00;;;;;;;11.10;5.30;;;8.70;99.90;;;;;;5010826;28;20690;-58
2021/09/25 03:33:25;;;;;;;17.77;4.53;;;8.60;99.90;;;;;;5012037;28;20423;-58
2021/09/25 03:35:51;;;;;;;11.83;4.20;;;8.60;99.90;;;;;;5016909;28;20208;-57
2021/09/25 03:38:20;;;;;;;15.93;3.90;;;8.50;99.90;;;;;;5011491;28;20542;-57
2021/09/25 03:40:47;;;;;;;10.07;4.30;;;8.50;99.90;;;;;;5015616;28;20204;-57
2021/09/25 03:43:13;;;;;;;16.10;3.87;;;8.40;99.90;;;;;;5009879;28;20925;-57
2021/09/25 03:45:39;;;;;;;12.63;3.90;;;8.30;99.90;;;;;;5009206;28;20498;-57
2021/09/25 03:48:05;;;;;;;6.03;4.13;;;8.30;99.90;;;;;;5009552;28;20711;-58
2021/09/25 03:50:35;;;;;;;5.33;3.57;;;8.20;99.90;;;;;;5013856;28;20216;-58
2021/09/25 03:53:01;;;;;;;9.50;4.43;;;8.20;99.90;;;;;;5019468;28;20806;-57
2021/09/25 03:55:27;;;;;;;5.70;4.13;;;8.10;99.90;;;;;;5009797;28;20411;-57
2021/09/25 03:57:53;;;;;;;5.73;4.00;;;8.10;99.90;;;;;;5008046;28;20442;-59
2021/09/25 04:00:19;;;;;;;4.57;3.70;;;8.10;99.90;;;;;;5004831;28;20490;-57
2021/09/25 04:02:46;;;;;;;8.20;4.10;;;8.00;99.90;;;;;;5006949;28;20745;-57
2021/09/25 04:05:11;;;;;;;3.80;3.50;;;8.10;99.90;;;;;;5005606;28;20423;-58
2021/09/25 04:07:37;;;;;;;4.80;4.20;;;8.10;99.90;;;;;;5008294;28;20955;-57
2021/09/25 04:10:06;;;;;;;6.20;4.30;;;8.10;99.90;;;;;;5011461;28;20311;-58
2021/09/25 04:12:32;;;;;;;6.13;4.30;;;8.10;99.90;;;;;;5013417;28;20182;-57
2021/09/25 04:14:58;;;;;;;5.63;4.90;;;8.10;99.90;;;;;;5010580;28;20406;-57
2021/09/25 04:17:24;;;;;;;6.03;5.07;;;8.10;99.90;;;;;;5009581;28;20164;-57
2021/09/25 04:19:49;;;;;;;7.77;4.83;;;8.10;99.90;;;;;;5015344;28;20438;-57
2021/09/25 04:22:15;;;;;;;14.70;4.70;;;8.00;99.90;;;;;;5011791;28;20196;-57
2021/09/25 04:24:42;;;;;;;8.63;4.33;;;8.00;99.90;;;;;;4999957;28;20204;-57
2021/09/25 04:27:08;;;;;;;4.20;3.60;;;8.00;99.90;;;;;;5008497;28;20173;-57
2021/09/25 04:29:34;;;;;;;6.17;4.20;;;8.00;99.90;;;;;;5008975;28;20427;-57
2021/09/25 04:32:00;;;;;;;4.93;3.90;;;7.90;99.90;;;;;;5015186;28;20476;-58
2021/09/25 04:34:25;;;;;;;6.33;4.20;;;7.90;99.90;;;;;;5001242;28;20549;-58
2021/09/25 04:36:51;;;;;;;4.73;4.27;;;7.90;99.90;;;;;;5009015;28;20195;-57
2021/09/25 04:39:16;;;;;;;5.00;4.50;;;7.90;99.90;;;;;;5008864;28;20173;-56
2021/09/25 04:41:42;;;;;;;6.80;4.50;;;7.90;99.90;;;;;;4997154;28;20196;-56
2021/09/25 04:44:14;;;;;;;5.93;4.47;;;7.90;99.90;;;;;;5007496;28;20210;-58
2021/09/25 04:46:42;;;;;;;5.20;4.20;;;7.90;99.90;;;;;;5009453;28;20173;-58
2021/09/25 04:49:08;;;;;;;5.17;3.93;;;7.90;99.90;;;;;;5008837;28;20451;-57
2021/09/25 04:51:36;;;;;;;4.13;3.70;;;7.90;99.90;;;;;;5006179;28;20762;-58
2021/09/25 04:54:03;;;;;;;5.27;4.27;;;7.90;99.90;;;;;;5004107;28;20420;-57
2021/09/25 04:56:30;;;;;;;4.40;4.00;;;7.90;99.90;;;;;;4992950;28;21023;-56
2021/09/25 04:58:55;;;;;;;8.40;4.80;;;7.90;99.90;;;;;;5013050;28;20438;-55
2021/09/25 05:01:21;;;;;;;6.27;4.20;;;7.80;99.90;;;;;;4990048;28;20816;-57
2021/09/25 05:03:48;;;;;;;7.93;4.63;;;7.90;99.90;;;;;;5001775;28;20187;-57
2021/09/25 05:06:14;;;;;;;5.30;4.30;;;7.80;99.90;;;;;;5008506;28;20348;-56
2021/09/25 05:08:40;;;;;;;4.67;4.10;;;7.90;99.90;;;;;;4999911;28;20423;-56
2021/09/25 05:11:06;;;;;;;5.70;4.50;;;7.90;99.90;;;;;;5008949;28;20439;-56
2021/09/25 05:13:31;;;;;;;7.13;4.90;;;7.80;99.90;;;;;;5004578;28;20684;-57
2021/09/25 05:15:57;;;;;;;7.80;4.93;;;7.80;99.90;;;;;;5011053;28;20200;-57
2021/09/25 05:18:25;;;;;;;5.83;4.87;;;7.80;99.90;;;;;;5011899;28;20192;-58
2021/09/25 05:20:51;;;;;;;12.33;5.63;;;7.80;99.90;;;;;;5010261;28;20205;-58
2021/09/25 05:23:18;;;;;;;7.17;4.90;;;7.80;99.90;;;;;;4993067;28;20468;-58
2021/09/25 05:25:44;;;;;;;10.80;5.13;;;7.80;99.90;;;;;;5006344;28;20494;-58
2021/09/25 05:28:10;;;;;;;4.87;3.90;;;7.80;99.90;;;;;;5009318;28;20538;-58
2021/09/25 05:30:37;;;;;;;6.93;4.47;;;7.80;99.90;;;;;;5008878;28;20542;-59
2021/09/25 05:33:05;;;;;;;6.53;4.33;;;7.80;99.90;;;;;;5027607;28;20517;-56
2021/09/25 05:35:31;;;;;;;5.83;4.60;;;7.70;99.90;;;;;;5015683;28;20481;-57
2021/09/25 05:37:56;;;;;;;7.17;4.70;;;7.70;99.90;;;;;;5010360;28;20869;-57
2021/09/25 05:40:22;;;;;;;5.17;4.20;;;7.70;99.90;;;;;;5010972;28;20210;-59
2021/09/25 05:42:48;;;;;;;7.63;4.77;;;7.70;99.90;;;;;;5012330;28;20267;-56
2021/09/25 05:45:16;;;;;;;5.50;4.50;;;7.80;99.90;;;;;;5008003;28;20180;-59
2021/09/25 05:47:42;;;;;;;7.63;4.10;;;7.80;99.90;;;;;;5015105;28;20188;-59
2021/09/25 05:50:08;;;;;;;8.00;4.90;;;7.80;99.90;;;;;;4992815;28;20811;-57
2021/09/25 05:52:34;;;;;;;6.07;4.57;;;7.80;99.90;;;;;;5003515;28;20498;-57
2021/09/25 05:55:00;;;;;;;5.33;4.40;;;7.80;99.90;;;;;;5011533;28;20875;-58
2021/09/25 05:57:25;;;;;;;7.47;4.90;;;7.70;99.90;;;;;;4985656;28;20177;-57
2021/09/25 05:59:51;;;;;;;6.80;4.73;;;7.70;99.90;;;;;;4998596;28;20210;-57
2021/09/25 06:02:17;;;;;;;5.67;4.50;;;7.80;99.90;;;;;;5015001;28;20669;-59
2021/09/25 06:04:42;;;;;;;6.40;5.33;;;7.80;99.90;;;;;;5000631;28;20214;-58
2021/09/25 06:07:11;;;;;;;5.73;4.90;;;7.80;99.90;;;;;;5015027;28;20180;-58
2021/09/25 06:09:37;;;;;;;6.07;4.63;;;7.90;99.90;;;;;;5014220;28;20752;-57
2021/09/25 06:12:04;;;;;;;5.70;4.73;;;7.90;99.90;;;;;;5006086;28;20443;-58
2021/09/25 06:14:30;;;;;;;6.40;4.90;;;8.00;99.90;;;;;;5011894;28;20420;-57
2021/09/25 06:16:56;;;;;;;5.53;5.03;;;8.00;99.90;;;;;;5011337;28;20431;-58
2021/09/25 06:19:22;;;;;;;5.83;4.97;;;8.10;99.90;;;;;;5008033;28;20870;-56
2021/09/25 06:21:48;;;;;;;6.27;5.10;;;8.20;99.90;;;;;;5011569;28;20245;-59
2021/09/25 06:24:14;;;;;;;11.53;6.53;;;8.20;99.90;;;;;;5009532;28;20207;-58
2021/09/25 06:26:39;;;;;;;7.00;5.83;;;8.30;99.90;;;;;;4998116;28;20841;-57
2021/09/25 06:29:05;;;;;;;6.67;5.33;;;8.40;99.90;;;;;;5007676;28;20183;-55
2021/09/25 06:31:31;;;;;;;14.10;6.20;;;8.40;99.90;;;;;;5003762;28;20196;-58
2021/09/25 06:33:57;;;;;;;8.33;5.63;;;8.50;99.90;;;;;;5017402;28;20180;-58
2021/09/25 06:36:23;;;;;;;8.93;5.43;;;8.60;99.90;;;;;;4993160;28;20436;-58
2021/09/25 06:38:49;;;;;;;6.97;5.57;;;8.60;99.90;;;;;;5009626;28;20184;-57
2021/09/25 06:41:17;;;;;;;7.60;5.53;;;8.70;99.90;;;;;;5022991;28;20719;-58
2021/09/25 06:43:43;;;;;;;5.90;4.83;;;8.80;99.90;;;;;;5005373;28;20459;-57
2021/09/25 06:46:09;;;;;;;9.13;5.63;;;8.90;99.90;;;;;;5010144;28;20446;-57
2021/09/25 06:48:35;;;;;;;7.57;5.80;;;9.00;99.90;;;;;;5013035;28;20426;-58
2021/09/25 06:51:01;;;;;;;10.20;5.80;;;9.00;99.90;;;;;;5002379;28;20813;-56
2021/09/25 06:53:29;;;;;;;13.03;5.90;;;9.10;99.90;;;;;;5012823;28;20193;-57
2021/09/25 06:55:54;;;;;;;6.80;5.40;;;9.10;99.90;;;;;;5014806;28;20206;-58
2021/09/25 06:58:20;;;;;;;10.80;6.40;;;9.20;99.90;;;;;;5012097;28;20912;-57
2021/09/25 07:00:50;;;;;;;10.17;6.53;;;9.30;99.90;;;;;;5010690;28;20200;-56
2021/09/25 07:03:17;;;;;;;7.97;5.83;;;9.40;99.90;;;;;;5005639;28;20216;-57
2021/09/25 07:05:43;;;;;;;6.03;4.77;;;9.40;99.90;;;;;;5009670;28;20447;-57
2021/09/25 07:08:09;;;;;;;6.90;5.10;;;9.50;99.90;;;;;;5009445;28;20904;-56
2021/09/25 07:10:36;;;;;;;7.23;4.97;;;9.50;99.90;;;;;;5011918;28;20239;-57
2021/09/25 07:13:02;;;;;;;5.10;4.50;;;9.60;99.90;;;;;;5012323;28;20526;-58
2021/09/25 07:15:28;;;;;;;5.10;4.27;;;9.70;99.90;;;;;;5013398;28;20435;-59
2021/09/25 07:17:54;;;;;;;5.50;4.50;;;9.80;99.90;;;;;;5009460;28;20442;-56
2021/09/25 07:20:19;;;;;;;7.47;4.97;;;9.90;99.90;;;;;;5004365;28;20262;-57
2021/09/25 07:22:50;;;;;;;7.20;4.60;;;9.90;99.90;;;;;;5009375;28;20669;-58
2021/09/25 07:25:17;;;;;;;8.03;5.40;;;10.00;99.90;;;;;;5007383;28;20172;-57
2021/09/25 07:27:43;;;;;;;5.17;4.40;;;10.10;99.90;;;;;;5014145;28;20940;-57
2021/09/25 07:30:09;;;;;;;4.87;4.20;;;10.20;99.90;;;;;;5008879;28;20432;-58
2021/09/25 07:32:35;;;;;;;7.80;4.20;;;10.30;99.90;;;;;;5007382;28;20427;-57
2021/09/25 07:35:00;;;;;;;7.53;5.13;;;10.40;99.90;;;;;;5013034;28;20540;-56
2021/09/25 07:37:26;;;;;;;10.90;4.60;;;10.50;99.90;;;;;;5015135;28;20208;-57
2021/09/25 07:39:52;;;;;;;10.17;4.40;;;10.60;99.90;;;;;;5010784;28;20196;-56
2021/09/25 07:42:20;;;;;;;5.87;4.87;;;10.60;99.90;;;;;;5005132;28;20196;-58
2021/09/25 07:44:47;;;;;;;6.40;4.97;;;10.70;99.90;;;;;;5001260;28;20573;-57
2021/09/25 07:47:14;;;;;;;5.13;4.60;;;10.80;99.90;;;;;;5010669;28;20430;-54
2021/09/25 07:49:39;;;;;;;7.80;5.33;;;10.90;99.90;;;;;;5008569;28;20435;-56
2021/09/25 07:52:06;;;;;;;7.43;4.80;;;11.00;99.90;;;;;;5008464;28;20462;-57
2021/09/25 07:54:31;;;;;;;6.70;4.63;;;11.10;99.90;;;;;;5008841;28;20205;-58
2021/09/25 07:56:57;;;;;;;5.20;4.50;;;11.20;99.90;;;;;;5008519;28;20912;-58
2021/09/25 07:59:23;;;;;;;7.40;4.90;;;11.30;99.90;;;;;;5011158;28;20403;-57
2021/09/25 08:01:49;;;;;;;5.63;4.70;;;11.40;99.90;;;;;;5014619;28;20204;-56
2021/09/25 08:04:15;;;;;;;9.23;4.60;;;11.50;99.90;;;;;;5008907;28;20901;-58
2021/09/25 08:06:41;;;;;;;10.50;5.43;;;11.70;99.90;;;;;;5009525;28;20415;-58
2021/09/25 08:09:07;;;;;;;5.60;4.70;;;11.80;99.90;;;;;;4998629;28;20445;-58
2021/09/25 08:11:33;;;;;;;6.13;5.03;;;11.90;99.90;;;;;;5007918;28;20944;-58
2021/09/25 08:13:59;;;;;;;8.53;5.27;;;12.00;99.90;;;;;;5007327;28;20215;-58
2021/09/25 08:16:24;;;;;;;5.47;4.67;;;12.20;99.90;;;;;;5012298;28;20199;-57
2021/09/25 08:18:51;;;;;;;7.20;5.60;;;12.30;99.90;;;;;;4990869;28;20188;-58
2021/09/25 08:21:17;;;;;;;8.53;5.90;;;12.40;99.90;;;;;;4997744;28;20711;-58
2021/09/25 08:23:42;;;;;;;7.70;5.50;;;12.50;99.90;;;;;;5004098;28;20467;-60
2021/09/25 08:26:08;;;;;;;7.77;5.83;;;12.60;99.90;;;;;;5008217;28;20172;-59
2021/09/25 08:28:34;;;;;;;9.83;6.20;;;12.70;99.90;;;;;;5010841;28;20596;-59
2021/09/25 08:30:59;;;;;;;6.10;5.50;;;12.80;99.90;;;;;;5007712;28;20183;-59
2021/09/25 08:33:25;;;;;;;11.00;6.63;;;13.00;99.90;;;;;;5011910;28;20181;-58
2021/09/25 08:35:51;;;;;;;7.53;5.97;;;13.20;99.90;;;;;;5010626;28;20183;-59
2021/09/25 08:38:17;;;;;;;10.67;7.40;;;13.30;99.90;;;;;;5011976;28;20563;-58
2021/09/25 08:40:43;;;;;;;12.13;6.93;;;13.50;99.90;;;;;;5004770;28;20705;-59
2021/09/25 08:43:09;;;;;;;8.80;6.80;;;13.70;99.90;;;;;;5007888;28;20219;-57
2021/09/25 08:45:34;;;;;;;8.70;6.47;;;13.80;99.90;;;;;;5007521;28;20428;-58
2021/09/25 08:48:00;;;;;;;8.47;6.00;;;14.00;99.90;;;;;;5008523;28;20184;-58
2021/09/25 08:50:27;;;;;;;8.43;6.33;;;14.10;99.90;;;;;;5006543;28;20564;-58
2021/09/25 08:52:53;;;;;;;10.63;6.37;;;14.20;99.90;;;;;;5007882;28;20461;-57
2021/09/25 08:55:19;;;;;;;8.80;6.57;;;14.40;99.90;;;;;;5004970;28;20434;-59
2021/09/25 08:57:47;;;;;;;11.33;7.00;;;14.50;99.90;;;;;;4995882;28;20428;-57
2021/09/25 09:00:31;;;;;;;10.30;7.13;;;14.70;99.90;;;;;;5007208;28;20206;-59
2021/09/25 09:03:30;;;;;;;9.97;6.47;;;14.90;99.90;;;;;;5005250;28;20456;-58
2021/09/25 09:06:09;;;;;;;8.83;6.63;;;15.10;99.90;;;;;;5008669;28;20427;-58
2021/09/25 09:08:36;;;;;;;7.40;6.40;;;15.30;99.90;;;;;;5011467;28;20517;-59
2021/09/25 09:11:04;;;;;;;7.40;6.20;;;15.60;99.90;;;;;;5012773;28;20975;-59
2021/09/25 09:13:31;;;;;;;10.20;6.83;;;15.80;99.90;;;;;;5014848;28;20426;-58
2021/09/25 09:15:59;;;;;;;9.13;7.10;;;16.00;99.90;;;;;;5012663;28;20436;-57
2021/09/25 09:18:25;;;;;;;7.50;5.67;;;16.20;99.90;;;;;;5013787;28;20427;-58
2021/09/25 09:21:09;;;;;;;9.23;7.00;;;16.50;99.90;;;;;;5011529;28;20546;-57
2021/09/25 09:23:49;;;;;;;9.30;6.90;;;16.70;99.90;;;;;;5017048;28;20230;-58
2021/09/25 09:26:21;;;;;;;8.10;5.87;;;16.90;99.90;;;;;;5012516;28;20419;-59
2021/09/25 09:28:48;;;;;;;10.50;7.23;;;17.10;99.90;;;;;;5010221;28;20932;-58
2021/09/25 09:31:15;;;;;;;10.97;6.70;;;17.30;99.90;;;;;;5012905;28;20435;-57
2021/09/25 09:33:42;;;;;;;9.57;6.60;;;17.40;99.90;;;;;;4998618;28;20497;-58
2021/09/25 09:36:24;;;;;;;10.80;5.97;;;17.60;99.90;;;;;;5009709;28;20438;-58
2021/09/25 09:39:00;;;;;;;6.13;5.50;;;17.80;99.90;;;;;;5010191;28;20431;-57
2021/09/25 09:41:29;;;;;;;7.57;5.80;;;17.90;99.90;;;;;;5013462;28;20989;-58
2021/09/25 09:44:02;;;;;;;8.07;6.20;;;18.10;99.90;;;;;;5010216;28;20502;-58
2021/09/25 09:46:36;;;;;;;7.30;6.13;;;18.20;99.00;;;;;;5012637;28;20437;-58
2021/09/25 09:49:02;;;;;;;8.67;6.37;;;18.40;99.30;;;;;;5013637;28;20906;-58
2021/09/25 09:51:39;;;;;;;8.20;6.03;;;18.60;98.80;;;;;;5014719;28;20462;-58
2021/09/25 09:54:29;;;;;;;8.37;6.10;;;18.80;94.70;;;;;;5015138;28;20422;-59
2021/09/25 09:56:58;;;;;;;18.80;5.50;;;18.90;94.30;;;;;;5015365;28;20504;-57
2021/09/25 09:59:25;;;;;;;6.47;5.70;;;19.10;95.20;;;;;;5009380;28;20475;-58
2021/09/25 10:01:51;;;;;;;6.37;5.27;;;19.30;93.70;;;;;;5008131;28;20455;-58
2021/09/25 10:04:17;;;;;;;9.10;6.60;;;19.40;93.60;;;;;;5011909;28;20462;-57
2021/09/25 10:06:44;;;;;;;9.30;5.80;;;19.50;93.70;;;;;;5009893;28;20439;-57
2021/09/25 10:09:13;;;;;;;7.33;5.30;;;19.70;91.70;;;;;;5008791;28;20451;-58
2021/09/25 10:11:40;;;;;;;7.37;5.40;;;19.90;93.60;;;;;;5009501;28;20838;-58
2021/09/25 10:14:10;;;;;;;6.37;5.40;;;20.00;90.80;;;;;;5024293;28;20466;-59
2021/09/25 10:16:36;;;;;;;7.70;5.50;;;20.20;92.40;;;;;;5006823;28;20427;-57
2021/09/25 10:19:05;;;;;;;8.37;6.07;;;20.40;91.40;;;;;;5004075;28;20501;-57
2021/09/25 10:21:34;;;;;;;7.20;5.67;;;20.60;90.80;;;;;;5019449;28;20909;-57
2021/09/25 10:24:22;;;;;;;6.73;5.73;;;20.70;80.80;;;;;;5014868;28;20447;-59
2021/09/25 10:26:48;;;;;;;7.47;6.07;;;20.80;79.00;;;;;;5008136;28;20438;-59
2021/09/25 10:29:20;;;;;;;9.37;5.30;;;20.80;76.50;;;;;;5005424;28;20883;-58
2021/09/25 10:31:47;;;;;;;7.23;5.53;;;20.90;80.00;;;;;;5008711;28;20462;-58
2021/09/25 10:34:14;;;;;;;6.97;5.57;;;21.10;78.90;;;;;;4997409;28;20533;-58
2021/09/25 10:36:39;;;;;;;7.37;5.40;;;21.30;82.50;;;;;;4990433;28;20439;-59
2021/09/25 10:39:18;;;;;;;6.30;5.30;;;21.40;75.70;;;;;;5013568;28;20442;-58
2021/09/25 10:41:45;;;;;;;8.43;4.87;;;21.60;70.90;;;;;;5012968;28;20703;-58
2021/09/25 10:44:27;;;;;;;10.13;5.73;;;21.70;67.20;;;;;;5009634;28;20549;-56
2021/09/25 10:47:08;;;;;;;4.60;4.20;;;21.70;66.20;;;;;;5008669;28;20420;-55
2021/09/25 10:49:48;;;;;;;5.63;4.30;;;21.80;68.20;;;;;;5009309;28;20489;-58
2021/09/25 10:52:16;;;;;;;6.40;4.67;;;22.00;64.80;;;;;;5012651;28;20632;-56
2021/09/25 10:54:43;;;;;;;7.40;4.23;;;22.10;65.30;;;;;;5016464;28;21011;-56
2021/09/25 10:57:16;;;;;;;4.23;3.83;;;22.20;64.80;;;;;;5016319;28;20431;-56
2021/09/25 11:00:20;;;;;;;4.77;3.90;;;22.40;62.90;;;;;;5003423;28;20501;-56
2021/09/25 11:02:46;;;;;;;4.50;3.97;;;22.60;62.60;;;;;;5009188;28;20752;-55
2021/09/25 11:05:53;;;;;;;8.77;4.63;;;22.80;61.30;;;;;;5004105;28;21215;-56
2021/09/25 11:08:29;;;;;;;5.40;4.90;;;22.90;61.40;;;;;;5008707;28;20199;-57
2021/09/25 11:11:15;;;;;;;4.80;4.30;;;23.10;62.80;;;;;;5006261;28;20447;-56
2021/09/25 11:14:12;;;;;;;5.17;4.67;;;23.40;62.30;;;;;;5003482;28;20438;-55
2021/09/25 11:17:02;;;;;;;5.70;4.57;;;23.50;60.90;;;;;;5010603;28;20422;-56
2021/09/25 11:19:28;;;;;;;5.00;4.40;;;23.70;60.10;;;;;;5014255;28;20426;-56
2021/09/25 11:22:06;;;;;;;7.03;4.27;;;23.80;58.00;;;;;;5005908;28;21008;-58
2021/09/25 11:24:54;;;;;;;4.60;4.20;;;24.00;60.20;;;;;;5007816;28;20481;-58
2021/09/25 11:27:32;;;;;;;6.40;4.57;;;24.20;59.50;;;;;;5008455;28;21111;-58
2021/09/25 11:30:16;;;;;;;5.67;4.20;;;24.40;58.70;;;;;;5008669;28;20435;-58
2021/09/25 11:32:59;;;;;;;4.13;3.73;;;24.50;57.50;;;;;;5008735;28;20425;-58
2021/09/25 11:35:33;;;;;;;6.30;4.23;;;24.70;56.20;;;;;;4997258;28;20443;-57
2021/09/25 11:38:05;;;;;;;6.47;4.17;;;24.70;56.30;;;;;;5008145;28;20788;-57
2021/09/25 11:40:34;;;;;;;6.17;4.70;;;24.70;56.30;;;;;;5005051;28;20479;-58
2021/09/25 11:43:07;;;;;;;4.40;3.90;;;24.40;55.80;;;;;;5004492;28;21085;-57
2021/09/25 11:45:42;;;;;;;5.30;4.33;;;24.30;56.70;;;;;;5007220;28;20971;-60
2021/09/25 11:48:10;;;;;;;4.97;3.83;;;24.30;56.90;;;;;;5007142;28;20522;-59
2021/09/25 11:50:46;;;;;;;4.63;4.20;;;24.40;57.40;;;;;;5008955;28;20560;-59
2021/09/25 11:53:15;;;;;;;4.90;3.63;;;24.50;57.60;;;;;;4992040;28;20408;-58
2021/09/25 11:55:42;;;;;;;6.43;4.87;;;24.50;57.60;;;;;;4986119;28;20534;-58
2021/09/25 11:58:11;;;;;;;4.63;4.23;;;24.50;57.10;;;;;;4996545;28;20423;-58
2021/09/25 12:00:51;;;;;;;7.20;4.70;;;24.50;56.60;;;;;;4985837;28;20470;-59
2021/09/25 12:03:19;;;;;;;5.47;4.10;;;24.40;56.50;;;;;;4985872;28;20477;-58
2021/09/25 12:05:47;;;;;;;5.87;4.30;;;24.20;56.80;;;;;;5003273;28;20557;-59
2021/09/25 12:08:19;;;;;;;6.80;4.27;;;23.90;56.70;;;;;;5000827;28;20979;-57
2021/09/25 12:10:48;;;;;;;5.77;4.90;;;23.80;57.60;;;;;;5002835;28;20455;-57
2021/09/25 12:13:23;;;;;;;8.10;4.70;;;23.70;57.60;;;;;;5004288;28;20449;-57
2021/09/25 12:15:53;;;;;;;6.27;4.40;;;23.70;58.00;;;;;;5008482;28;20434;-59
2021/09/25 12:18:26;;;;;;;6.57;4.90;;;23.70;58.20;;;;;;4987002;28;20444;-57
2021/09/25 12:21:02;;;;;;;8.37;4.87;;;23.80;58.60;;;;;;5020669;28;20457;-58
2021/09/25 12:23:40;;;;;;;5.40;4.80;;;24.20;59.30;;;;;;5012027;28;20477;-57
2021/09/25 12:26:07;;;;;;;4.00;3.60;;;24.50;56.80;;;;;;5013222;28;20434;-58
2021/09/25 12:28:35;;;;;;;8.40;4.30;;;24.80;56.70;;;;;;5008983;28;20498;-58
2021/09/25 12:31:09;;;;;;;4.20;3.80;;;25.00;56.10;;;;;;5004782;28;20463;-57
2021/09/25 12:33:37;;;;;;;4.63;4.23;;;25.20;55.80;;;;;;4996284;28;20450;-58
2021/09/25 12:36:10;;;;;;;8.30;4.30;;;25.40;55.50;;;;;;4997622;28;21020;-58
2021/09/25 12:38:40;;;;;;;4.17;3.20;;;25.60;55.00;;;;;;5001102;28;20458;-56
2021/09/25 12:41:10;;;;;;;4.60;3.50;;;25.60;54.20;;;;;;5001148;28;20442;-57
2021/09/25 12:43:44;;;;;;;6.17;3.83;;;25.50;53.50;;;;;;4999231;28;20971;-57
2021/09/25 12:46:11;;;;;;;5.03;3.83;;;25.30;53.80;;;;;;4999146;28;20473;-57
2021/09/25 12:49:07;;;;;;;12.00;4.47;;;25.10;54.20;;;;;;4996347;28;20435;-57
2021/09/25 12:51:38;;;;;;;6.53;4.30;;;24.80;54.20;;;;;;4999238;28;20497;-56
2021/09/25 12:54:10;;;;;;;6.50;4.30;;;24.60;54.60;;;;;;5001263;28;20459;-56
2021/09/25 12:56:38;;;;;;;5.30;4.30;;;24.40;54.50;;;;;;4998451;28;20956;-57